createdAt,value
2022-10-29T00:04:57.855Z,19.49
2022-10-29T00:11:59.439Z,19.48
2022-10-29T00:19:01.013Z,19.49
2022-10-29T00:26:02.748Z,19.44
2022-10-29T00:33:04.303Z,19.49
2022-10-29T00:40:06.351Z,19.46
2022-10-29T00:47:17.337Z,19.47
2022-10-29T00:54:18.947Z,19.45
2022-10-29T01:01:20.683Z,19.44
2022-10-29T01:08:22.322Z,19.47
2022-10-29T01:15:33.794Z,19.45
2022-10-29T01:22:40.006Z,19.41
2022-10-29T01:29:54.242Z,19.39
2022-10-29T01:37:02.052Z,19.44
2022-10-29T01:44:13.854Z,19.38
2022-10-29T01:51:19.205Z,19.38
2022-10-29T01:58:20.772Z,19.32
2022-10-29T02:05:25.287Z,19.26
2022-10-29T02:12:31.021Z,19.23
2022-10-29T02:19:33.550Z,19.20
2022-10-29T02:26:35.113Z,19.13
2022-10-29T02:33:36.656Z,19.13
2022-10-29T02:40:38.216Z,19.10
2022-10-29T02:47:39.799Z,19.08
2022-10-29T02:54:41.430Z,19.01
2022-10-29T03:01:43.170Z,18.98
2022-10-29T03:08:45.189Z,18.96
2022-10-29T03:15:46.755Z,18.96
2022-10-29T03:22:48.378Z,18.92
2022-10-29T03:29:50.017Z,18.90
2022-10-29T03:36:51.600Z,18.80
2022-10-29T03:43:53.253Z,18.79
2022-10-29T03:51:01.864Z,18.74
2022-10-29T03:58:03.437Z,18.49
2022-10-29T04:05:05.327Z,18.38
2022-10-29T04:12:07.461Z,18.38
2022-10-29T04:19:09.024Z,18.31
2022-10-29T04:33:32.277Z,18.28
2022-10-29T04:40:33.846Z,18.34
2022-10-29T04:47:35.415Z,18.16
2022-10-29T04:54:37.013Z,18.12
2022-10-29T05:01:38.620Z,18.06
2022-10-29T05:08:40.184Z,18.07
2022-10-29T05:15:41.800Z,18.07
2022-10-29T05:22:43.374Z,18.04
2022-10-29T05:29:44.944Z,17.98
2022-10-29T05:36:47.025Z,17.95
2022-10-29T05:43:49.722Z,17.88
2022-10-29T05:50:51.410Z,17.82
2022-10-29T05:57:59.428Z,17.76
2022-10-29T06:05:01.001Z,17.76
2022-10-29T06:12:02.582Z,17.65
2022-10-29T06:19:04.259Z,17.59
2022-10-29T06:26:05.813Z,17.54
2022-10-29T06:33:07.482Z,17.61
2022-10-29T06:40:09.531Z,17.65
2022-10-29T06:47:11.074Z,17.72
2022-10-29T06:54:12.664Z,17.65
2022-10-29T07:01:14.256Z,17.82
2022-10-29T07:08:15.848Z,17.89
2022-10-29T07:15:17.691Z,18.01
2022-10-29T07:22:19.222Z,18.10
2022-10-29T07:29:20.783Z,18.16
2022-10-29T07:36:22.410Z,18.25
2022-10-29T07:43:24.004Z,18.31
2022-10-29T07:50:25.903Z,18.57
2022-10-29T07:57:27.470Z,18.82
2022-10-29T08:04:29.077Z,18.94
2022-10-29T08:11:33.778Z,19.08
2022-10-29T08:18:35.338Z,19.15
2022-10-29T08:25:43.047Z,19.41
2022-10-29T08:32:46.545Z,19.62
2022-10-29T08:39:48.097Z,19.70
2022-10-29T08:47:09.612Z,19.99
2022-10-29T08:54:30.433Z,20.34
2022-10-29T09:01:32.539Z,20.42
2022-10-29T09:08:59.244Z,20.70
2022-10-29T09:16:01.921Z,21.01
2022-10-29T09:23:24.940Z,21.36
2022-10-29T09:30:29.391Z,21.59
2022-10-29T09:38:05.245Z,21.40
2022-10-29T09:45:10.696Z,21.57
2022-10-29T09:52:32.506Z,21.89
2022-10-29T09:59:37.106Z,21.84
2022-10-29T10:07:05.252Z,21.80
2022-10-29T10:14:16.596Z,22.00
2022-10-29T10:21:31.578Z,21.57
2022-10-29T10:28:36.270Z,21.62
2022-10-29T10:35:37.837Z,22.22
2022-10-29T10:42:42.748Z,22.60
2022-10-29T10:49:44.308Z,22.41
2022-10-29T10:57:02.489Z,22.47
2022-10-29T11:04:27.990Z,22.55
2022-10-29T11:11:35.896Z,22.56
2022-10-29T11:18:56.195Z,22.78
2022-10-29T11:26:07.887Z,22.74
2022-10-29T11:33:37.363Z,22.93
2022-10-29T11:40:50.093Z,22.86
2022-10-29T11:48:04.866Z,22.76
2022-10-29T11:55:21.766Z,22.86
2022-10-29T12:02:40.011Z,22.97
2022-10-29T12:09:57.473Z,23.23
2022-10-29T12:17:27.438Z,23.35
2022-10-29T12:24:50.452Z,23.47
2022-10-29T12:32:03.076Z,23.59
2022-10-29T12:39:05.518Z,23.54
2022-10-29T12:46:29.196Z,23.48
2022-10-29T12:53:52.423Z,23.37
2022-10-29T13:00:54.075Z,23.26
2022-10-29T13:07:59.297Z,23.38
2022-10-29T13:15:03.795Z,23.35
2022-10-29T13:22:14.341Z,23.22
2022-10-29T13:29:42.205Z,23.17
2022-10-29T13:36:43.789Z,23.14
2022-10-29T13:44:04.916Z,23.08
2022-10-29T13:51:08.090Z,23.08
2022-10-29T13:58:24.768Z,23.11
2022-10-29T14:05:47.381Z,23.08
2022-10-29T14:12:49.211Z,23.10
2022-10-29T14:19:51.475Z,23.18
2022-10-29T14:26:53.681Z,23.13
2022-10-29T14:33:59.082Z,23.05
2022-10-29T14:41:00.677Z,22.91
2022-10-29T14:48:03.331Z,22.78
2022-10-29T14:55:13.402Z,22.75
2022-10-29T15:02:36.881Z,22.57
2022-10-29T15:09:36.562Z,22.65
2022-10-29T15:16:41.458Z,22.61
2022-10-29T15:23:44.103Z,22.51
2022-10-29T15:30:46.917Z,22.39
2022-10-29T15:37:48.564Z,22.32
2022-10-29T15:45:08.089Z,22.24
2022-10-29T15:52:09.754Z,22.12
2022-10-29T15:59:14.663Z,22.03
2022-10-29T16:06:16.366Z,21.97
2022-10-29T16:13:18.266Z,21.91
2022-10-29T16:20:19.949Z,21.80
2022-10-29T16:27:21.537Z,21.69
2022-10-29T16:34:24.717Z,21.72
2022-10-29T16:41:26.611Z,21.64
2022-10-29T16:48:28.188Z,21.60
2022-10-29T16:55:29.808Z,21.52
2022-10-29T17:02:31.374Z,21.51
2022-10-29T17:09:35.334Z,21.51
2022-10-29T17:16:36.944Z,21.44
2022-10-29T17:23:38.601Z,21.42
2022-10-29T17:30:40.349Z,21.42
2022-10-29T17:37:41.948Z,21.33
2022-10-29T17:44:43.542Z,21.26
2022-10-29T17:51:45.164Z,21.19
2022-10-29T17:58:46.753Z,21.24
2022-10-29T18:05:48.398Z,21.16
2022-10-29T18:12:49.944Z,21.13
2022-10-29T18:19:51.894Z,21.05
2022-10-29T18:26:53.556Z,20.98
2022-10-29T18:33:55.426Z,20.90
2022-10-29T18:40:57.975Z,20.81
2022-10-29T18:48:00.152Z,20.72
2022-10-29T18:55:02.202Z,20.63
2022-10-29T19:02:04.038Z,20.56
2022-10-29T19:09:06.829Z,20.49
2022-10-29T19:16:12.132Z,20.51
2022-10-29T19:23:13.719Z,20.43
2022-10-29T19:30:15.880Z,20.37
2022-10-29T19:37:17.473Z,20.33
2022-10-29T19:44:19.100Z,20.34
2022-10-29T19:51:21.216Z,20.30
2022-10-29T19:58:24.238Z,20.22
2022-10-29T20:05:25.850Z,20.18
2022-10-29T20:12:27.556Z,20.14
2022-10-29T20:19:29.355Z,20.08
2022-10-29T20:26:31.177Z,19.97
2022-10-29T20:33:32.751Z,19.89
2022-10-29T20:40:34.304Z,19.84
2022-10-29T20:47:35.904Z,19.81
2022-10-29T20:54:37.477Z,19.81
2022-10-29T21:01:39.183Z,19.77
2022-10-29T21:08:40.906Z,19.73
2022-10-29T21:15:42.468Z,19.66
2022-10-29T21:22:44.052Z,19.60
2022-10-29T21:29:45.727Z,19.64
2022-10-29T21:36:47.321Z,19.59
2022-10-29T21:43:48.888Z,19.60
2022-10-29T21:50:50.482Z,19.60
2022-10-29T21:57:52.058Z,19.51
2022-10-29T22:04:53.660Z,19.44
2022-10-29T22:11:55.213Z,19.47
2022-10-29T22:18:56.777Z,19.48
2022-10-29T22:25:58.385Z,19.49
2022-10-29T22:32:59.948Z,19.41
2022-10-29T22:40:01.527Z,19.41
2022-10-29T22:47:03.120Z,19.39
2022-10-29T22:54:04.895Z,19.39
2022-10-29T23:01:08.150Z,19.31
2022-10-29T23:08:09.755Z,19.30
2022-10-29T23:15:11.355Z,19.24
2022-10-29T23:22:12.904Z,19.27
2022-10-29T23:29:14.521Z,19.22
2022-10-29T23:36:16.592Z,19.09
2022-10-29T23:43:18.150Z,19.04
2022-10-29T23:50:19.729Z,18.65
2022-10-29T23:57:21.324Z,18.87
